sensor_id;sensor_type;location;lat;lon;timestamp;P1;durP1;ratioP1;P2;durP2;ratioP2
19207;SDS011;9737;59.466;18.036;2023-11-22T00:01:23;10.20;;;6.83;;
19207;SDS011;9737;59.466;18.036;2023-11-22T00:03:52;8.60;;;5.93;;
19207;SDS011;9737;59.466;18.036;2023-11-22T00:06:20;11.27;;;6.60;;
19207;SDS011;9737;59.466;18.036;2023-11-22T00:08:48;10.40;;;7.00;;
19207;SDS011;9737;59.466;18.036;2023-11-22T00:11:16;9.70;;;6.60;;
19207;SDS011;9737;59.466;18.036;2023-11-22T00:13:45;13.00;;;8.07;;
19207;SDS011;9737;59.466;18.036;2023-11-22T00:16:15;12.63;;;8.47;;
19207;SDS011;9737;59.466;18.036;2023-11-22T00:18:43;11.07;;;7.17;;
19207;SDS011;9737;59.466;18.036;2023-11-22T00:21:11;9.77;;;6.33;;
19207;SDS011;9737;59.466;18.036;2023-11-22T00:23:39;8.43;;;6.43;;
19207;SDS011;9737;59.466;18.036;2023-11-22T00:26:06;10.83;;;7.27;;
19207;SDS011;9737;59.466;18.036;2023-11-22T00:28:34;15.67;;;7.33;;
19207;SDS011;9737;59.466;18.036;2023-11-22T00:31:03;12.23;;;7.30;;
19207;SDS011;9737;59.466;18.036;2023-11-22T00:33:32;11.77;;;7.23;;
19207;SDS011;9737;59.466;18.036;2023-11-22T00:36:01;8.47;;;6.27;;
19207;SDS011;9737;59.466;18.036;2023-11-22T00:38:31;10.87;;;6.77;;
19207;SDS011;9737;59.466;18.036;2023-11-22T00:41:02;8.43;;;6.17;;
19207;SDS011;9737;59.466;18.036;2023-11-22T00:43:29;12.17;;;6.87;;
19207;SDS011;9737;59.466;18.036;2023-11-22T00:45:57;9.03;;;6.73;;
19207;SDS011;9737;59.466;18.036;2023-11-22T00:48:27;10.93;;;7.63;;
19207;SDS011;9737;59.466;18.036;2023-11-22T00:50:55;9.90;;;6.17;;
19207;SDS011;9737;59.466;18.036;2023-11-22T00:53:26;10.57;;;7.10;;
19207;SDS011;9737;59.466;18.036;2023-11-22T00:55:54;13.23;;;6.90;;
19207;SDS011;9737;59.466;18.036;2023-11-22T00:58:27;11.47;;;6.93;;
19207;SDS011;9737;59.466;18.036;2023-11-22T01:00:54;9.87;;;6.60;;
19207;SDS011;9737;59.466;18.036;2023-11-22T01:03:22;12.07;;;7.13;;
19207;SDS011;9737;59.466;18.036;2023-11-22T01:05:51;10.30;;;7.10;;
19207;SDS011;9737;59.466;18.036;2023-11-22T01:08:19;9.47;;;6.43;;
19207;SDS011;9737;59.466;18.036;2023-11-22T01:10:48;12.63;;;7.60;;
19207;SDS011;9737;59.466;18.036;2023-11-22T01:13:16;13.20;;;7.13;;
19207;SDS011;9737;59.466;18.036;2023-11-22T01:15:44;14.07;;;7.30;;
19207;SDS011;9737;59.466;18.036;2023-11-22T01:18:13;9.50;;;7.17;;
19207;SDS011;9737;59.466;18.036;2023-11-22T01:20:41;10.33;;;6.90;;
19207;SDS011;9737;59.466;18.036;2023-11-22T01:23:10;13.17;;;7.07;;
19207;SDS011;9737;59.466;18.036;2023-11-22T01:25:38;13.07;;;7.53;;
19207;SDS011;9737;59.466;18.036;2023-11-22T01:28:06;13.57;;;8.00;;
19207;SDS011;9737;59.466;18.036;2023-11-22T01:30:34;10.63;;;6.80;;
19207;SDS011;9737;59.466;18.036;2023-11-22T01:33:02;12.53;;;7.17;;
19207;SDS011;9737;59.466;18.036;2023-11-22T01:35:30;15.43;;;7.50;;
19207;SDS011;9737;59.466;18.036;2023-11-22T01:38:01;14.43;;;7.80;;
19207;SDS011;9737;59.466;18.036;2023-11-22T01:40:32;10.83;;;7.33;;
19207;SDS011;9737;59.466;18.036;2023-11-22T01:43:00;10.43;;;6.87;;
19207;SDS011;9737;59.466;18.036;2023-11-22T01:45:28;10.00;;;6.50;;
19207;SDS011;9737;59.466;18.036;2023-11-22T01:47:56;9.13;;;6.53;;
19207;SDS011;9737;59.466;18.036;2023-11-22T01:50:24;12.20;;;7.10;;
19207;SDS011;9737;59.466;18.036;2023-11-22T01:52:52;8.37;;;6.10;;
19207;SDS011;9737;59.466;18.036;2023-11-22T01:55:20;12.37;;;6.90;;
19207;SDS011;9737;59.466;18.036;2023-11-22T01:57:50;9.07;;;7.00;;
19207;SDS011;9737;59.466;18.036;2023-11-22T02:00:18;11.53;;;7.10;;
19207;SDS011;9737;59.466;18.036;2023-11-22T02:02:48;13.07;;;7.10;;
19207;SDS011;9737;59.466;18.036;2023-11-22T02:05:16;8.93;;;6.40;;
19207;SDS011;9737;59.466;18.036;2023-11-22T02:07:44;11.00;;;6.77;;
19207;SDS011;9737;59.466;18.036;2023-11-22T02:10:13;12.57;;;6.83;;
19207;SDS011;9737;59.466;18.036;2023-11-22T02:12:41;10.33;;;6.47;;
19207;SDS011;9737;59.466;18.036;2023-11-22T02:15:10;9.17;;;6.87;;
19207;SDS011;9737;59.466;18.036;2023-11-22T02:17:38;9.50;;;6.83;;
19207;SDS011;9737;59.466;18.036;2023-11-22T02:20:06;11.07;;;6.80;;
19207;SDS011;9737;59.466;18.036;2023-11-22T02:22:42;11.93;;;6.80;;
19207;SDS011;9737;59.466;18.036;2023-11-22T02:25:12;12.90;;;6.73;;
19207;SDS011;9737;59.466;18.036;2023-11-22T02:27:41;12.40;;;7.73;;
19207;SDS011;9737;59.466;18.036;2023-11-22T02:30:10;13.27;;;8.03;;
19207;SDS011;9737;59.466;18.036;2023-11-22T02:32:38;14.90;;;8.37;;
19207;SDS011;9737;59.466;18.036;2023-11-22T02:35:07;11.13;;;7.77;;
19207;SDS011;9737;59.466;18.036;2023-11-22T02:37:36;11.90;;;7.60;;
19207;SDS011;9737;59.466;18.036;2023-11-22T02:40:05;12.77;;;7.33;;
19207;SDS011;9737;59.466;18.036;2023-11-22T02:42:38;9.43;;;6.90;;
19207;SDS011;9737;59.466;18.036;2023-11-22T02:45:06;9.97;;;7.20;;
19207;SDS011;9737;59.466;18.036;2023-11-22T02:47:35;11.33;;;7.13;;
19207;SDS011;9737;59.466;18.036;2023-11-22T02:50:03;8.80;;;6.67;;
19207;SDS011;9737;59.466;18.036;2023-11-22T02:52:32;9.40;;;6.83;;
19207;SDS011;9737;59.466;18.036;2023-11-22T02:54:59;12.33;;;7.50;;
19207;SDS011;9737;59.466;18.036;2023-11-22T02:57:27;10.23;;;6.63;;
19207;SDS011;9737;59.466;18.036;2023-11-22T02:59:56;10.37;;;7.20;;
19207;SDS011;9737;59.466;18.036;2023-11-22T03:02:24;10.37;;;7.20;;
19207;SDS011;9737;59.466;18.036;2023-11-22T03:04:52;10.77;;;7.17;;
19207;SDS011;9737;59.466;18.036;2023-11-22T03:07:20;9.30;;;6.60;;
19207;SDS011;9737;59.466;18.036;2023-11-22T03:09:48;10.60;;;6.70;;
19207;SDS011;9737;59.466;18.036;2023-11-22T03:12:16;10.33;;;6.57;;
19207;SDS011;9737;59.466;18.036;2023-11-22T03:14:44;11.07;;;7.03;;
19207;SDS011;9737;59.466;18.036;2023-11-22T03:17:14;9.13;;;6.67;;
19207;SDS011;9737;59.466;18.036;2023-11-22T03:19:42;11.63;;;6.60;;
19207;SDS011;9737;59.466;18.036;2023-11-22T03:22:11;9.00;;;6.60;;
19207;SDS011;9737;59.466;18.036;2023-11-22T03:24:39;9.57;;;6.70;;
19207;SDS011;9737;59.466;18.036;2023-11-22T03:27:07;10.67;;;6.67;;
19207;SDS011;9737;59.466;18.036;2023-11-22T03:29:37;9.20;;;6.23;;
19207;SDS011;9737;59.466;18.036;2023-11-22T03:32:05;9.73;;;6.97;;
19207;SDS011;9737;59.466;18.036;2023-11-22T03:34:35;11.27;;;6.63;;
19207;SDS011;9737;59.466;18.036;2023-11-22T03:37:03;8.63;;;6.10;;
19207;SDS011;9737;59.466;18.036;2023-11-22T03:39:31;10.90;;;6.70;;
19207;SDS011;9737;59.466;18.036;2023-11-22T03:41:59;8.10;;;6.17;;
19207;SDS011;9737;59.466;18.036;2023-11-22T03:44:26;8.43;;;6.03;;
19207;SDS011;9737;59.466;18.036;2023-11-22T03:46:54;9.57;;;6.10;;
19207;SDS011;9737;59.466;18.036;2023-11-22T03:49:22;8.80;;;6.13;;
19207;SDS011;9737;59.466;18.036;2023-11-22T03:51:51;10.07;;;6.13;;
19207;SDS011;9737;59.466;18.036;2023-11-22T03:54:19;8.00;;;6.03;;
19207;SDS011;9737;59.466;18.036;2023-11-22T03:56:47;7.53;;;6.37;;
19207;SDS011;9737;59.466;18.036;2023-11-22T03:59:15;9.87;;;6.33;;
19207;SDS011;9737;59.466;18.036;2023-11-22T04:01:42;10.57;;;6.20;;
19207;SDS011;9737;59.466;18.036;2023-11-22T04:04:10;10.77;;;6.33;;
19207;SDS011;9737;59.466;18.036;2023-11-22T04:06:38;7.60;;;6.00;;
19207;SDS011;9737;59.466;18.036;2023-11-22T04:09:08;8.13;;;5.93;;
19207;SDS011;9737;59.466;18.036;2023-11-22T04:11:38;9.80;;;6.00;;
19207;SDS011;9737;59.466;18.036;2023-11-22T04:14:07;9.67;;;6.23;;
19207;SDS011;9737;59.466;18.036;2023-11-22T04:16:35;9.17;;;5.80;;
19207;SDS011;9737;59.466;18.036;2023-11-22T04:19:04;9.27;;;6.40;;
19207;SDS011;9737;59.466;18.036;2023-11-22T04:21:32;8.33;;;6.00;;
19207;SDS011;9737;59.466;18.036;2023-11-22T04:23:59;10.50;;;6.03;;
19207;SDS011;9737;59.466;18.036;2023-11-22T04:26:29;8.27;;;6.10;;
19207;SDS011;9737;59.466;18.036;2023-11-22T04:28:56;8.13;;;6.03;;
19207;SDS011;9737;59.466;18.036;2023-11-22T04:31:24;7.63;;;5.97;;
19207;SDS011;9737;59.466;18.036;2023-11-22T04:33:52;8.53;;;5.60;;
19207;SDS011;9737;59.466;18.036;2023-11-22T04:36:20;8.97;;;6.37;;
19207;SDS011;9737;59.466;18.036;2023-11-22T04:38:50;9.63;;;6.27;;
19207;SDS011;9737;59.466;18.036;2023-11-22T04:41:18;12.83;;;6.70;;
19207;SDS011;9737;59.466;18.036;2023-11-22T04:43:48;8.07;;;6.13;;
19207;SDS011;9737;59.466;18.036;2023-11-22T04:46:15;9.97;;;6.40;;
19207;SDS011;9737;59.466;18.036;2023-11-22T04:48:43;8.07;;;5.83;;
19207;SDS011;9737;59.466;18.036;2023-11-22T04:51:11;10.50;;;6.00;;
19207;SDS011;9737;59.466;18.036;2023-11-22T04:53:39;8.37;;;6.23;;
19207;SDS011;9737;59.466;18.036;2023-11-22T04:56:09;8.67;;;6.17;;
19207;SDS011;9737;59.466;18.036;2023-11-22T04:58:37;9.33;;;6.43;;
19207;SDS011;9737;59.466;18.036;2023-11-22T05:01:06;11.10;;;6.43;;
19207;SDS011;9737;59.466;18.036;2023-11-22T05:03:37;10.73;;;6.80;;
19207;SDS011;9737;59.466;18.036;2023-11-22T05:06:05;11.70;;;6.93;;
19207;SDS011;9737;59.466;18.036;2023-11-22T05:08:33;10.83;;;7.03;;
19207;SDS011;9737;59.466;18.036;2023-11-22T05:11:01;11.83;;;7.67;;
19207;SDS011;9737;59.466;18.036;2023-11-22T05:13:31;12.53;;;7.43;;
19207;SDS011;9737;59.466;18.036;2023-11-22T05:15:59;11.43;;;7.30;;
19207;SDS011;9737;59.466;18.036;2023-11-22T05:18:28;9.97;;;7.00;;
19207;SDS011;9737;59.466;18.036;2023-11-22T05:20:56;11.53;;;7.37;;
19207;SDS011;9737;59.466;18.036;2023-11-22T05:23:24;13.13;;;7.57;;
19207;SDS011;9737;59.466;18.036;2023-11-22T05:25:52;11.57;;;7.73;;
19207;SDS011;9737;59.466;18.036;2023-11-22T05:28:19;14.83;;;7.43;;
19207;SDS011;9737;59.466;18.036;2023-11-22T05:30:47;10.90;;;7.50;;
19207;SDS011;9737;59.466;18.036;2023-11-22T05:33:15;10.80;;;7.30;;
19207;SDS011;9737;59.466;18.036;2023-11-22T05:35:44;9.90;;;6.50;;
19207;SDS011;9737;59.466;18.036;2023-11-22T05:38:13;10.20;;;7.33;;
19207;SDS011;9737;59.466;18.036;2023-11-22T05:40:41;10.57;;;7.00;;
19207;SDS011;9737;59.466;18.036;2023-11-22T05:43:09;10.83;;;7.07;;
19207;SDS011;9737;59.466;18.036;2023-11-22T05:45:38;12.90;;;7.73;;
19207;SDS011;9737;59.466;18.036;2023-11-22T05:48:06;15.10;;;8.33;;
19207;SDS011;9737;59.466;18.036;2023-11-22T05:50:34;12.97;;;8.23;;
19207;SDS011;9737;59.466;18.036;2023-11-22T05:53:03;15.30;;;8.87;;
19207;SDS011;9737;59.466;18.036;2023-11-22T05:55:31;15.47;;;8.33;;
19207;SDS011;9737;59.466;18.036;2023-11-22T05:57:59;28.70;;;11.07;;
19207;SDS011;9737;59.466;18.036;2023-11-22T06:00:27;26.37;;;11.53;;
19207;SDS011;9737;59.466;18.036;2023-11-22T06:02:54;42.80;;;17.27;;
19207;SDS011;9737;59.466;18.036;2023-11-22T06:05:23;64.43;;;22.87;;
19207;SDS011;9737;59.466;18.036;2023-11-22T06:07:51;78.00;;;25.77;;
19207;SDS011;9737;59.466;18.036;2023-11-22T06:10:20;19.87;;;11.77;;
19207;SDS011;9737;59.466;18.036;2023-11-22T06:12:49;31.87;;;13.93;;
19207;SDS011;9737;59.466;18.036;2023-11-22T06:15:17;17.63;;;10.20;;
19207;SDS011;9737;59.466;18.036;2023-11-22T06:17:47;23.97;;;11.67;;
19207;SDS011;9737;59.466;18.036;2023-11-22T06:20:15;20.43;;;11.27;;
19207;SDS011;9737;59.466;18.036;2023-11-22T06:22:44;20.43;;;9.87;;
19207;SDS011;9737;59.466;18.036;2023-11-22T06:25:11;20.63;;;10.90;;
19207;SDS011;9737;59.466;18.036;2023-11-22T06:27:41;19.67;;;11.37;;
19207;SDS011;9737;59.466;18.036;2023-11-22T06:30:08;21.05;;;11.40;;
19207;SDS011;9737;59.466;18.036;2023-11-22T06:32:37;19.70;;;10.70;;
19207;SDS011;9737;59.466;18.036;2023-11-22T06:35:06;17.88;;;10.82;;
19207;SDS011;9737;59.466;18.036;2023-11-22T06:37:36;19.13;;;10.27;;
19207;SDS011;9737;59.466;18.036;2023-11-22T06:40:04;19.52;;;10.85;;
19207;SDS011;9737;59.466;18.036;2023-11-22T06:42:32;19.25;;;9.93;;
19207;SDS011;9737;59.466;18.036;2023-11-22T06:45:02;17.23;;;10.13;;
19207;SDS011;9737;59.466;18.036;2023-11-22T06:47:33;17.58;;;9.55;;
19207;SDS011;9737;59.466;18.036;2023-11-22T06:50:01;18.40;;;9.82;;
19207;SDS011;9737;59.466;18.036;2023-11-22T06:52:30;20.23;;;9.82;;
19207;SDS011;9737;59.466;18.036;2023-11-22T06:54:59;22.75;;;9.98;;
19207;SDS011;9737;59.466;18.036;2023-11-22T06:57:26;36.80;;;10.13;;
19207;SDS011;9737;59.466;18.036;2023-11-22T06:59:55;29.10;;;10.13;;
19207;SDS011;9737;59.466;18.036;2023-11-22T07:02:24;20.25;;;9.93;;
19207;SDS011;9737;59.466;18.036;2023-11-22T07:04:52;26.80;;;9.27;;
19207;SDS011;9737;59.466;18.036;2023-11-22T07:07:20;22.92;;;10.48;;
19207;SDS011;9737;59.466;18.036;2023-11-22T07:09:48;21.40;;;10.15;;
19207;SDS011;9737;59.466;18.036;2023-11-22T07:12:16;29.23;;;10.25;;
19207;SDS011;9737;59.466;18.036;2023-11-22T07:14:45;21.88;;;9.88;;
19207;SDS011;9737;59.466;18.036;2023-11-22T07:17:16;22.88;;;10.68;;
19207;SDS011;9737;59.466;18.036;2023-11-22T07:19:45;23.20;;;10.75;;
19207;SDS011;9737;59.466;18.036;2023-11-22T07:22:14;24.65;;;11.48;;
19207;SDS011;9737;59.466;18.036;2023-11-22T07:24:46;23.65;;;10.75;;
19207;SDS011;9737;59.466;18.036;2023-11-22T07:27:17;26.33;;;11.90;;
19207;SDS011;9737;59.466;18.036;2023-11-22T07:29:45;24.15;;;10.88;;
19207;SDS011;9737;59.466;18.036;2023-11-22T07:32:14;27.75;;;12.50;;
19207;SDS011;9737;59.466;18.036;2023-11-22T07:34:42;26.60;;;12.57;;
19207;SDS011;9737;59.466;18.036;2023-11-22T07:37:11;26.63;;;11.98;;
19207;SDS011;9737;59.466;18.036;2023-11-22T07:39:39;30.35;;;11.88;;
19207;SDS011;9737;59.466;18.036;2023-11-22T07:42:09;27.85;;;11.32;;
19207;SDS011;9737;59.466;18.036;2023-11-22T07:44:37;31.88;;;12.80;;
19207;SDS011;9737;59.466;18.036;2023-11-22T07:47:06;30.17;;;13.32;;
19207;SDS011;9737;59.466;18.036;2023-11-22T07:49:38;27.88;;;11.70;;
19207;SDS011;9737;59.466;18.036;2023-11-22T07:52:06;33.55;;;13.07;;
19207;SDS011;9737;59.466;18.036;2023-11-22T07:54:35;28.40;;;12.57;;
19207;SDS011;9737;59.466;18.036;2023-11-22T07:57:03;29.70;;;12.02;;
19207;SDS011;9737;59.466;18.036;2023-11-22T07:59:31;29.15;;;13.50;;
19207;SDS011;9737;59.466;18.036;2023-11-22T08:01:59;31.08;;;13.10;;
19207;SDS011;9737;59.466;18.036;2023-11-22T08:04:28;28.15;;;11.38;;
19207;SDS011;9737;59.466;18.036;2023-11-22T08:06:58;31.38;;;11.55;;
19207;SDS011;9737;59.466;18.036;2023-11-22T08:09:28;26.48;;;11.23;;
19207;SDS011;9737;59.466;18.036;2023-11-22T08:12:00;39.67;;;13.20;;
19207;SDS011;9737;59.466;18.036;2023-11-22T08:14:31;38.17;;;13.07;;
19207;SDS011;9737;59.466;18.036;2023-11-22T08:17:00;34.60;;;12.80;;
19207;SDS011;9737;59.466;18.036;2023-11-22T08:19:30;42.35;;;14.98;;
19207;SDS011;9737;59.466;18.036;2023-11-22T08:21:57;35.42;;;13.52;;
19207;SDS011;9737;59.466;18.036;2023-11-22T08:24:26;35.08;;;14.20;;
19207;SDS011;9737;59.466;18.036;2023-11-22T08:26:54;30.98;;;13.00;;
19207;SDS011;9737;59.466;18.036;2023-11-22T08:29:23;34.65;;;13.88;;
19207;SDS011;9737;59.466;18.036;2023-11-22T08:31:51;37.22;;;13.98;;
19207;SDS011;9737;59.466;18.036;2023-11-22T08:34:19;35.45;;;14.45;;
19207;SDS011;9737;59.466;18.036;2023-11-22T08:36:46;35.22;;;12.95;;
19207;SDS011;9737;59.466;18.036;2023-11-22T08:39:14;33.25;;;12.70;;
19207;SDS011;9737;59.466;18.036;2023-11-22T08:41:42;31.58;;;12.02;;
19207;SDS011;9737;59.466;18.036;2023-11-22T08:44:10;29.45;;;12.35;;
19207;SDS011;9737;59.466;18.036;2023-11-22T08:46:39;32.42;;;12.48;;
19207;SDS011;9737;59.466;18.036;2023-11-22T08:49:07;30.98;;;12.05;;
19207;SDS011;9737;59.466;18.036;2023-11-22T08:51:35;32.58;;;12.10;;
19207;SDS011;9737;59.466;18.036;2023-11-22T08:54:03;28.17;;;12.18;;
19207;SDS011;9737;59.466;18.036;2023-11-22T08:56:31;31.83;;;11.63;;
19207;SDS011;9737;59.466;18.036;2023-11-22T08:59:01;28.48;;;11.40;;
19207;SDS011;9737;59.466;18.036;2023-11-22T09:01:31;24.55;;;10.68;;
19207;SDS011;9737;59.466;18.036;2023-11-22T09:04:00;25.35;;;10.55;;
19207;SDS011;9737;59.466;18.036;2023-11-22T09:06:28;22.40;;;9.63;;
19207;SDS011;9737;59.466;18.036;2023-11-22T09:08:56;23.67;;;9.80;;
19207;SDS011;9737;59.466;18.036;2023-11-22T09:11:24;25.85;;;10.18;;
19207;SDS011;9737;59.466;18.036;2023-11-22T09:13:52;24.13;;;10.13;;
19207;SDS011;9737;59.466;18.036;2023-11-22T09:16:23;23.13;;;9.60;;
19207;SDS011;9737;59.466;18.036;2023-11-22T09:18:51;24.17;;;10.23;;
19207;SDS011;9737;59.466;18.036;2023-11-22T09:21:22;19.88;;;8.88;;
19207;SDS011;9737;59.466;18.036;2023-11-22T09:23:51;19.73;;;9.02;;
19207;SDS011;9737;59.466;18.036;2023-11-22T09:26:19;22.48;;;9.90;;
19207;SDS011;9737;59.466;18.036;2023-11-22T09:28:47;18.50;;;8.55;;
19207;SDS011;9737;59.466;18.036;2023-11-22T09:31:15;17.70;;;7.88;;
19207;SDS011;9737;59.466;18.036;2023-11-22T09:33:46;17.65;;;8.68;;
19207;SDS011;9737;59.466;18.036;2023-11-22T09:36:14;17.15;;;8.57;;
19207;SDS011;9737;59.466;18.036;2023-11-22T09:38:46;16.45;;;7.30;;
19207;SDS011;9737;59.466;18.036;2023-11-22T09:41:14;17.05;;;7.53;;
19207;SDS011;9737;59.466;18.036;2023-11-22T09:43:42;16.63;;;7.30;;
19207;SDS011;9737;59.466;18.036;2023-11-22T09:46:13;17.30;;;6.85;;
19207;SDS011;9737;59.466;18.036;2023-11-22T09:48:43;17.25;;;7.00;;
19207;SDS011;9737;59.466;18.036;2023-11-22T09:51:15;18.55;;;7.97;;
19207;SDS011;9737;59.466;18.036;2023-11-22T09:53:55;15.38;;;6.88;;
19207;SDS011;9737;59.466;18.036;2023-11-22T09:56:25;20.70;;;7.60;;
19207;SDS011;9737;59.466;18.036;2023-11-22T09:58:54;13.70;;;6.75;;
19207;SDS011;9737;59.466;18.036;2023-11-22T10:01:23;14.57;;;6.53;;
19207;SDS011;9737;59.466;18.036;2023-11-22T10:03:51;15.35;;;6.72;;
19207;SDS011;9737;59.466;18.036;2023-11-22T10:06:19;13.65;;;6.55;;
19207;SDS011;9737;59.466;18.036;2023-11-22T10:08:47;14.10;;;6.45;;
19207;SDS011;9737;59.466;18.036;2023-11-22T10:11:17;14.95;;;6.68;;
19207;SDS011;9737;59.466;18.036;2023-11-22T10:13:47;17.90;;;6.78;;
19207;SDS011;9737;59.466;18.036;2023-11-22T10:16:15;12.82;;;5.97;;
19207;SDS011;9737;59.466;18.036;2023-11-22T10:18:45;13.73;;;6.82;;
19207;SDS011;9737;59.466;18.036;2023-11-22T10:21:20;16.90;;;7.55;;
19207;SDS011;9737;59.466;18.036;2023-11-22T10:23:50;13.70;;;5.80;;
19207;SDS011;9737;59.466;18.036;2023-11-22T10:26:24;12.77;;;6.40;;
19207;SDS011;9737;59.466;18.036;2023-11-22T10:28:55;13.15;;;6.93;;
19207;SDS011;9737;59.466;18.036;2023-11-22T10:31:24;14.38;;;6.80;;
19207;SDS011;9737;59.466;18.036;2023-11-22T10:33:52;12.40;;;6.88;;
19207;SDS011;9737;59.466;18.036;2023-11-22T10:36:21;14.73;;;7.38;;
19207;SDS011;9737;59.466;18.036;2023-11-22T10:38:50;13.07;;;6.47;;
19207;SDS011;9737;59.466;18.036;2023-11-22T10:41:19;14.98;;;7.13;;
19207;SDS011;9737;59.466;18.036;2023-11-22T10:43:50;14.00;;;6.60;;
19207;SDS011;9737;59.466;18.036;2023-11-22T10:46:19;13.95;;;6.60;;
19207;SDS011;9737;59.466;18.036;2023-11-22T10:48:48;13.82;;;6.75;;
19207;SDS011;9737;59.466;18.036;2023-11-22T10:51:16;10.23;;;6.10;;
19207;SDS011;9737;59.466;18.036;2023-11-22T10:53:48;13.90;;;6.82;;
19207;SDS011;9737;59.466;18.036;2023-11-22T10:56:17;13.60;;;6.53;;
19207;SDS011;9737;59.466;18.036;2023-11-22T10:58:48;14.38;;;6.25;;
19207;SDS011;9737;59.466;18.036;2023-11-22T11:01:19;12.13;;;5.95;;
19207;SDS011;9737;59.466;18.036;2023-11-22T11:03:51;14.00;;;6.00;;
19207;SDS011;9737;59.466;18.036;2023-11-22T11:06:25;11.32;;;6.28;;
19207;SDS011;9737;59.466;18.036;2023-11-22T11:09:00;10.93;;;5.97;;
19207;SDS011;9737;59.466;18.036;2023-11-22T11:11:32;11.25;;;6.35;;
19207;SDS011;9737;59.466;18.036;2023-11-22T11:14:03;11.77;;;6.32;;
19207;SDS011;9737;59.466;18.036;2023-11-22T11:16:34;13.70;;;6.28;;
19207;SDS011;9737;59.466;18.036;2023-11-22T11:19:05;13.00;;;6.50;;
19207;SDS011;9737;59.466;18.036;2023-11-22T11:21:34;14.00;;;6.90;;
19207;SDS011;9737;59.466;18.036;2023-11-22T11:24:02;10.60;;;6.10;;
19207;SDS011;9737;59.466;18.036;2023-11-22T11:26:31;11.68;;;6.47;;
19207;SDS011;9737;59.466;18.036;2023-11-22T11:29:02;11.98;;;6.10;;
19207;SDS011;9737;59.466;18.036;2023-11-22T11:31:31;11.45;;;6.20;;
19207;SDS011;9737;59.466;18.036;2023-11-22T11:34:04;12.55;;;6.10;;
19207;SDS011;9737;59.466;18.036;2023-11-22T11:36:36;12.02;;;6.18;;
19207;SDS011;9737;59.466;18.036;2023-11-22T11:39:05;11.65;;;5.93;;
19207;SDS011;9737;59.466;18.036;2023-11-22T11:41:37;10.02;;;4.93;;
19207;SDS011;9737;59.466;18.036;2023-11-22T11:44:08;10.07;;;5.63;;
19207;SDS011;9737;59.466;18.036;2023-11-22T11:46:37;11.05;;;6.15;;
19207;SDS011;9737;59.466;18.036;2023-11-22T11:49:07;11.52;;;6.25;;
19207;SDS011;9737;59.466;18.036;2023-11-22T11:51:35;10.48;;;5.82;;
19207;SDS011;9737;59.466;18.036;2023-11-22T11:54:04;12.30;;;6.25;;
19207;SDS011;9737;59.466;18.036;2023-11-22T11:56:33;10.98;;;6.03;;
19207;SDS011;9737;59.466;18.036;2023-11-22T11:59:02;12.00;;;5.75;;
19207;SDS011;9737;59.466;18.036;2023-11-22T12:01:31;10.75;;;5.85;;
19207;SDS011;9737;59.466;18.036;2023-11-22T12:04:00;10.32;;;5.85;;
19207;SDS011;9737;59.466;18.036;2023-11-22T12:06:29;9.68;;;6.00;;
19207;SDS011;9737;59.466;18.036;2023-11-22T12:09:00;11.77;;;6.05;;
19207;SDS011;9737;59.466;18.036;2023-11-22T12:11:30;10.85;;;5.90;;
19207;SDS011;9737;59.466;18.036;2023-11-22T12:13:58;9.95;;;5.70;;
19207;SDS011;9737;59.466;18.036;2023-11-22T12:16:26;10.65;;;5.97;;
19207;SDS011;9737;59.466;18.036;2023-11-22T12:18:55;10.45;;;5.88;;
19207;SDS011;9737;59.466;18.036;2023-11-22T12:21:25;10.10;;;5.55;;
19207;SDS011;9737;59.466;18.036;2023-11-22T12:23:54;8.68;;;5.13;;
19207;SDS011;9737;59.466;18.036;2023-11-22T12:26:22;10.00;;;5.50;;
19207;SDS011;9737;59.466;18.036;2023-11-22T12:28:50;9.50;;;5.55;;
19207;SDS011;9737;59.466;18.036;2023-11-22T12:31:31;9.80;;;5.35;;
19207;SDS011;9737;59.466;18.036;2023-11-22T12:34:04;8.70;;;5.00;;
19207;SDS011;9737;59.466;18.036;2023-11-22T12:36:33;9.50;;;5.22;;
19207;SDS011;9737;59.466;18.036;2023-11-22T12:39:03;9.85;;;5.45;;
19207;SDS011;9737;59.466;18.036;2023-11-22T12:41:35;9.05;;;5.38;;
19207;SDS011;9737;59.466;18.036;2023-11-22T12:44:05;9.43;;;5.30;;
19207;SDS011;9737;59.466;18.036;2023-11-22T12:46:47;10.18;;;5.15;;
19207;SDS011;9737;59.466;18.036;2023-11-22T12:49:24;8.55;;;4.93;;
19207;SDS011;9737;59.466;18.036;2023-11-22T12:51:53;8.98;;;4.97;;
19207;SDS011;9737;59.466;18.036;2023-11-22T12:54:23;9.60;;;5.35;;
19207;SDS011;9737;59.466;18.036;2023-11-22T12:56:51;8.60;;;4.70;;
19207;SDS011;9737;59.466;18.036;2023-11-22T12:59:26;7.45;;;4.63;;
19207;SDS011;9737;59.466;18.036;2023-11-22T13:01:57;9.38;;;5.47;;
19207;SDS011;9737;59.466;18.036;2023-11-22T13:04:29;8.20;;;4.97;;
19207;SDS011;9737;59.466;18.036;2023-11-22T13:06:58;9.70;;;5.15;;
19207;SDS011;9737;59.466;18.036;2023-11-22T13:09:27;8.85;;;5.18;;
19207;SDS011;9737;59.466;18.036;2023-11-22T13:11:55;7.85;;;4.95;;
19207;SDS011;9737;59.466;18.036;2023-11-22T13:14:24;9.82;;;5.25;;
19207;SDS011;9737;59.466;18.036;2023-11-22T13:16:56;8.95;;;4.97;;
19207;SDS011;9737;59.466;18.036;2023-11-22T13:19:24;8.13;;;4.88;;
19207;SDS011;9737;59.466;18.036;2023-11-22T13:21:53;11.32;;;5.40;;
19207;SDS011;9737;59.466;18.036;2023-11-22T13:24:21;8.85;;;5.45;;
19207;SDS011;9737;59.466;18.036;2023-11-22T13:26:48;11.05;;;5.15;;
19207;SDS011;9737;59.466;18.036;2023-11-22T13:29:17;9.25;;;4.60;;
19207;SDS011;9737;59.466;18.036;2023-11-22T13:31:45;9.05;;;5.50;;
19207;SDS011;9737;59.466;18.036;2023-11-22T13:34:13;8.07;;;4.57;;
19207;SDS011;9737;59.466;18.036;2023-11-22T13:36:41;7.80;;;4.32;;
19207;SDS011;9737;59.466;18.036;2023-11-22T13:39:10;11.55;;;5.28;;
19207;SDS011;9737;59.466;18.036;2023-11-22T13:41:41;8.43;;;4.75;;
19207;SDS011;9737;59.466;18.036;2023-11-22T13:44:09;13.52;;;5.10;;
19207;SDS011;9737;59.466;18.036;2023-11-22T13:46:37;10.35;;;5.30;;
19207;SDS011;9737;59.466;18.036;2023-11-22T13:49:05;8.02;;;5.18;;
19207;SDS011;9737;59.466;18.036;2023-11-22T13:51:32;10.50;;;4.85;;
19207;SDS011;9737;59.466;18.036;2023-11-22T13:54:01;10.07;;;5.28;;
19207;SDS011;9737;59.466;18.036;2023-11-22T13:56:31;9.50;;;5.32;;
19207;SDS011;9737;59.466;18.036;2023-11-22T13:58:59;11.63;;;4.68;;
19207;SDS011;9737;59.466;18.036;2023-11-22T14:01:26;7.90;;;5.10;;
19207;SDS011;9737;59.466;18.036;2023-11-22T14:03:54;10.45;;;5.30;;
19207;SDS011;9737;59.466;18.036;2023-11-22T14:06:23;9.07;;;5.07;;
19207;SDS011;9737;59.466;18.036;2023-11-22T14:08:51;9.10;;;5.10;;
19207;SDS011;9737;59.466;18.036;2023-11-22T14:11:19;9.73;;;5.20;;
19207;SDS011;9737;59.466;18.036;2023-11-22T14:13:49;11.57;;;4.82;;
19207;SDS011;9737;59.466;18.036;2023-11-22T14:16:16;9.15;;;5.53;;
19207;SDS011;9737;59.466;18.036;2023-11-22T14:18:45;8.80;;;5.10;;
19207;SDS011;9737;59.466;18.036;2023-11-22T14:21:13;9.07;;;4.70;;
19207;SDS011;9737;59.466;18.036;2023-11-22T14:23:41;13.27;;;5.30;;
19207;SDS011;9737;59.466;18.036;2023-11-22T14:26:09;9.65;;;5.25;;
19207;SDS011;9737;59.466;18.036;2023-11-22T14:28:36;10.50;;;4.93;;
19207;SDS011;9737;59.466;18.036;2023-11-22T14:31:06;10.48;;;5.47;;
19207;SDS011;9737;59.466;18.036;2023-11-22T14:33:38;9.65;;;4.97;;
19207;SDS011;9737;59.466;18.036;2023-11-22T14:36:06;8.75;;;5.22;;
19207;SDS011;9737;59.466;18.036;2023-11-22T14:38:34;11.15;;;5.47;;
19207;SDS011;9737;59.466;18.036;2023-11-22T14:41:02;8.68;;;4.60;;
19207;SDS011;9737;59.466;18.036;2023-11-22T14:43:30;7.35;;;4.72;;
19207;SDS011;9737;59.466;18.036;2023-11-22T14:45:58;14.43;;;5.00;;